Time;durP1;ratioP1;P1;durP2;ratioP2;P2;SDS_P1;SDS_P2;PMS_P1;PMS_P2;Temp;Humidity;BMP_temperature;BMP_pressure;BME280_temperature;BME280_humidity;BME280_pressure;Samples;Min_cycle;Max_cycle;Signal;HPM_P1;HPM_P2
2021/01/30 00:01:55;;;;;;;4.50;1.40;;;5.50;99.90;;;;;;5042001;28;20084;-76
2021/01/30 00:04:22;;;;;;;1.85;1.00;;;5.40;99.90;;;;;;5044212;28;20053;-76
2021/01/30 00:06:53;;;;;;;2.45;1.15;;;5.40;99.90;;;;;;5038467;28;20040;-75
2021/01/30 00:09:22;;;;;;;2.10;1.13;;;5.40;99.90;;;;;;5041659;28;20542;-77
2021/01/30 00:11:51;;;;;;;2.10;1.10;;;5.40;99.90;;;;;;5043821;28;20702;-76
2021/01/30 00:14:25;;;;;;;1.90;1.17;;;5.40;99.90;;;;;;5032142;28;20037;-76
2021/01/30 00:16:52;;;;;;;2.63;1.10;;;5.40;99.90;;;;;;5041897;28;20087;-76
2021/01/30 00:19:26;;;;;;;1.85;1.00;;;5.40;99.90;;;;;;5040118;28;20503;-76
2021/01/30 00:21:58;;;;;;;3.50;1.20;;;5.40;99.90;;;;;;5034493;28;20046;-76
2021/01/30 00:24:26;;;;;;;2.45;1.00;;;5.40;99.90;;;;;;5036768;28;20134;-76
2021/01/30 00:27:02;;;;;;;3.30;1.15;;;5.40;99.90;;;;;;5032915;28;20542;-77
2021/01/30 00:29:36;;;;;;;2.58;1.20;;;5.40;99.90;;;;;;5044214;28;20102;-77
2021/01/30 00:32:03;;;;;;;2.63;1.08;;;5.30;99.90;;;;;;5044533;28;20053;-77
2021/01/30 00:34:31;;;;;;;2.08;1.20;;;5.30;99.90;;;;;;5040697;28;20041;-76
2021/01/30 00:37:15;;;;;;;5.65;1.58;;;5.30;99.90;;;;;;5040590;28;20496;-76
2021/01/30 00:39:41;;;;;;;6.47;1.50;;;5.30;99.90;;;;;;5038578;28;20060;-75
2021/01/30 00:42:13;;;;;;;2.42;1.50;;;5.30;99.90;;;;;;5041933;28;20059;-77
2021/01/30 00:44:43;;;;;;;8.10;1.63;;;5.30;99.90;;;;;;5042703;28;20246;-76
2021/01/30 00:47:12;;;;;;;5.57;1.70;;;5.30;99.90;;;;;;5044504;28;20049;-76
2021/01/30 00:49:46;;;;;;;4.13;1.67;;;5.30;99.90;;;;;;5044493;28;20056;-77
2021/01/30 00:52:18;;;;;;;2.60;1.27;;;5.30;99.90;;;;;;5027736;28;20426;-76
2021/01/30 00:54:45;;;;;;;;;;;5.30;99.90;;;;;;5044524;28;20542;-75
2021/01/30 00:57:11;;;;;;;2.67;1.10;;;5.30;99.90;;;;;;5022657;28;19976;-76
2021/01/30 00:59:41;;;;;;;3.15;1.95;;;5.30;99.90;;;;;;5075449;28;20127;-77
2021/01/30 01:02:07;;;;;;;3.13;1.50;;;5.30;99.90;;;;;;5040738;28;20079;-75
2021/01/30 01:04:37;;;;;;;2.78;1.30;;;5.30;99.90;;;;;;5042811;28;20044;-75
2021/01/30 01:07:06;;;;;;;3.60;1.85;;;5.30;99.90;;;;;;5041957;28;20460;-75
2021/01/30 01:09:32;;;;;;;3.60;1.27;;;5.30;99.90;;;;;;5042861;28;20057;-75
2021/01/30 01:11:59;;;;;;;2.70;1.38;;;5.30;99.90;;;;;;5042116;28;20658;-75
2021/01/30 01:14:26;;;;;;;1.67;1.10;;;5.20;99.90;;;;;;5043920;28;20057;-76
2021/01/30 01:16:55;;;;;;;4.22;1.63;;;5.30;99.90;;;;;;5042827;28;20041;-74
2021/01/30 01:19:22;;;;;;;4.65;1.42;;;5.20;99.90;;;;;;5044417;28;20055;-75
2021/01/30 01:21:52;;;;;;;2.83;1.20;;;5.20;99.90;;;;;;5041870;28;20064;-74
2021/01/30 01:24:21;;;;;;;4.05;1.35;;;5.20;99.90;;;;;;5042449;28;20057;-74
2021/01/30 01:26:50;;;;;;;1.42;1.10;;;5.20;99.90;;;;;;5043340;28;20051;-75
2021/01/30 01:29:18;;;;;;;2.17;1.63;;;5.20;99.90;;;;;;5043152;28;20107;-74
2021/01/30 01:31:59;;;;;;;3.83;1.20;;;5.20;99.90;;;;;;5046576;28;20049;-75
2021/01/30 01:34:31;;;;;;;4.72;1.48;;;5.10;99.90;;;;;;5045905;28;20204;-75
2021/01/30 01:37:02;;;;;;;2.60;1.20;;;5.20;99.90;;;;;;5047762;28;20048;-76
2021/01/30 01:39:33;;;;;;;2.10;1.02;;;5.10;99.90;;;;;;5046940;28;20055;-76
2021/01/30 01:42:14;;;;;;;2.15;1.00;;;5.10;99.90;;;;;;5045427;28;20499;-75
2021/01/30 01:44:45;;;;;;;1.50;1.20;;;5.10;99.90;;;;;;5047062;28;20094;-75
2021/01/30 01:47:25;;;;;;;2.70;1.00;;;5.10;99.90;;;;;;5047687;28;20463;-75
2021/01/30 01:49:54;;;;;;;1.60;0.95;;;5.10;99.90;;;;;;5047217;28;20132;-75
2021/01/30 01:52:31;;;;;;;1.63;1.48;;;5.00;99.90;;;;;;5047082;28;20053;-75
2021/01/30 01:55:04;;;;;;;1.25;1.10;;;5.00;99.90;;;;;;5047295;28;20057;-75
2021/01/30 01:57:31;;;;;;;3.05;1.05;;;5.10;99.90;;;;;;5046775;28;20084;-75
2021/01/30 01:59:58;;;;;;;2.70;1.30;;;5.00;99.90;;;;;;5045935;28;20183;-75
2021/01/30 02:02:31;;;;;;;1.08;0.90;;;5.00;99.90;;;;;;5045488;28;20083;-76
2021/01/30 02:05:18;;;;;;;2.40;0.90;;;4.90;99.90;;;;;;5042359;28;20057;-75
2021/01/30 02:07:45;;;;;;;1.95;1.20;;;4.90;99.90;;;;;;5046438;28;20079;-74
2021/01/30 02:10:16;;;;;;;1.15;0.90;;;4.80;99.90;;;;;;5035993;28;20120;-75
2021/01/30 02:12:45;;;;;;;1.40;1.00;;;4.80;99.90;;;;;;5045882;28;20060;-76
2021/01/30 02:15:14;;;;;;;2.03;1.10;;;4.80;99.90;;;;;;5043373;28;20140;-76
2021/01/30 02:18:16;;;;;;;1.70;0.85;;;4.80;99.90;;;;;;5045528;28;20505;-75
2021/01/30 02:21:20;;;;;;;3.38;1.48;;;4.80;99.90;;;;;;5015849;28;20445;-75
2021/01/30 02:24:11;;;;;;;2.40;0.98;;;4.80;99.90;;;;;;5034779;28;20089;-75
2021/01/30 02:26:59;;;;;;;3.28;1.00;;;4.70;99.90;;;;;;5044699;28;20055;-75
2021/01/30 02:29:31;;;;;;;3.45;1.30;;;4.70;99.90;;;;;;5046388;28;20049;-76
2021/01/30 02:32:18;;;;;;;1.30;1.20;;;4.60;99.90;;;;;;5046640;28;20084;-76
2021/01/30 02:34:44;;;;;;;1.83;1.10;;;4.60;99.90;;;;;;5044957;28;20045;-76
2021/01/30 02:37:24;;;;;;;2.35;1.17;;;4.60;99.90;;;;;;5041383;28;20042;-75
2021/01/30 02:39:55;;;;;;;2.53;1.30;;;4.60;99.90;;;;;;5043463;28;20099;-75
2021/01/30 02:42:29;;;;;;;1.10;0.80;;;4.60;99.90;;;;;;5045366;28;20106;-76
2021/01/30 02:45:04;;;;;;;1.00;1.00;;;4.60;99.90;;;;;;5046422;28;20069;-76
2021/01/30 02:47:42;;;;;;;1.05;0.90;;;4.60;99.90;;;;;;5033982;28;20120;-76
2021/01/30 02:50:20;;;;;;;1.00;1.00;;;4.60;99.90;;;;;;5044475;28;20049;-76
2021/01/30 02:52:51;;;;;;;0.93;0.90;;;4.60;99.90;;;;;;5045108;28;20065;-75
2021/01/30 02:55:19;;;;;;;1.55;1.45;;;4.60;99.90;;;;;;5046207;28;20627;-76
2021/01/30 02:57:46;;;;;;;1.35;1.20;;;4.70;99.90;;;;;;5043672;28;20511;-75
2021/01/30 03:00:16;;;;;;;2.17;1.30;;;4.60;99.90;;;;;;5046328;28;20573;-75
2021/01/30 03:02:44;;;;;;;3.55;1.17;;;4.60;99.90;;;;;;5046273;28;20666;-75
2021/01/30 03:05:13;;;;;;;1.20;1.08;;;4.70;99.90;;;;;;5045556;28;20061;-76
2021/01/30 03:07:52;;;;;;;1.85;1.05;;;4.70;99.90;;;;;;5045464;28;20120;-76
2021/01/30 03:10:34;;;;;;;5.15;1.30;;;4.80;99.90;;;;;;5044632;28;20127;-76
2021/01/30 03:13:28;;;;;;;1.20;1.00;;;4.80;99.90;;;;;;5044925;28;20249;-76
2021/01/30 03:16:10;;;;;;;1.23;0.90;;;4.90;99.90;;;;;;5051066;28;20095;-75
2021/01/30 03:18:44;;;;;;;2.63;1.30;;;4.90;99.90;;;;;;5043070;28;20775;-76
2021/01/30 03:21:14;;;;;;;2.45;1.50;;;4.90;99.90;;;;;;5044234;28;20110;-75
2021/01/30 03:23:44;;;;;;;1.55;1.00;;;4.80;99.90;;;;;;5044035;28;20049;-75
2021/01/30 03:26:15;;;;;;;1.67;1.27;;;4.80;99.90;;;;;;5045515;28;20156;-76
2021/01/30 03:28:43;;;;;;;1.08;1.08;;;4.80;99.90;;;;;;5044328;28;20125;-76
2021/01/30 03:31:10;;;;;;;1.67;1.02;;;4.80;99.90;;;;;;5044891;28;20084;-75
2021/01/30 03:33:37;;;;;;;1.25;1.15;;;4.80;99.90;;;;;;5046643;28;20048;-75
2021/01/30 03:36:04;;;;;;;1.20;1.10;;;4.80;99.90;;;;;;5047174;28;20136;-75
2021/01/30 03:38:31;;;;;;;3.50;1.20;;;4.80;99.90;;;;;;5045536;28;20118;-75
2021/01/30 03:40:57;;;;;;;3.03;1.58;;;4.80;99.90;;;;;;5045957;28;20586;-75
2021/01/30 03:43:24;;;;;;;1.10;1.00;;;4.80;99.90;;;;;;5044040;28;20131;-76
2021/01/30 03:45:50;;;;;;;4.15;1.13;;;4.80;99.90;;;;;;5046036;28;20137;-75
2021/01/30 03:48:17;;;;;;;1.58;1.20;;;4.90;99.90;;;;;;5043981;28;20067;-76
2021/01/30 03:50:45;;;;;;;2.00;1.25;;;4.90;99.90;;;;;;5044060;28;20044;-74
2021/01/30 03:53:14;;;;;;;3.67;1.50;;;4.90;99.90;;;;;;5043547;28;20120;-74
2021/01/30 03:55:43;;;;;;;3.90;1.33;;;4.90;99.90;;;;;;5044988;28;20060;-75
2021/01/30 03:58:13;;;;;;;2.88;1.52;;;4.90;99.90;;;;;;5044177;28;20080;-75
2021/01/30 04:00:41;;;;;;;2.03;1.50;;;4.90;99.90;;;;;;5043414;28;20140;-76
2021/01/30 04:03:10;;;;;;;1.45;1.20;;;4.90;99.90;;;;;;5043801;28;20077;-76
2021/01/30 04:05:39;;;;;;;2.28;1.70;;;4.90;99.90;;;;;;5043321;28;20053;-77
2021/01/30 04:08:06;;;;;;;5.72;1.70;;;4.90;99.90;;;;;;5014823;28;20133;-75
2021/01/30 04:10:36;;;;;;;2.53;1.40;;;4.90;99.90;;;;;;5027355;28;20479;-76
2021/01/30 04:13:09;;;;;;;5.72;2.25;;;4.90;99.90;;;;;;5061806;28;20041;-76
2021/01/30 04:15:41;;;;;;;11.05;4.10;;;4.90;99.90;;;;;;5065257;28;20049;-76
2021/01/30 04:18:09;;;;;;;9.75;5.43;;;4.90;99.90;;;;;;5065311;28;20025;-76
2021/01/30 04:20:36;;;;;;;9.57;4.88;;;4.90;99.90;;;;;;5063643;28;20039;-77
2021/01/30 04:23:04;;;;;;;6.93;4.07;;;4.90;99.90;;;;;;5064389;28;20137;-76
2021/01/30 04:25:30;;;;;;;8.48;3.00;;;4.90;99.90;;;;;;5064697;28;20128;-77
2021/01/30 04:27:58;;;;;;;3.38;1.85;;;4.90;99.90;;;;;;5043036;28;20079;-77
2021/01/30 04:30:27;;;;;;;5.57;1.60;;;4.80;99.90;;;;;;5053387;28;20094;-77
2021/01/30 04:32:55;;;;;;;3.28;1.65;;;4.80;99.90;;;;;;5046121;28;20163;-76
2021/01/30 04:35:25;;;;;;;4.43;1.77;;;4.80;99.90;;;;;;5043609;28;20532;-77
2021/01/30 04:37:52;;;;;;;3.63;1.65;;;4.80;99.90;;;;;;5044424;28;20484;-76
2021/01/30 04:40:39;;;;;;;9.57;1.92;;;4.90;99.90;;;;;;5040975;28;20064;-77
2021/01/30 04:43:14;;;;;;;3.92;1.40;;;4.90;99.90;;;;;;5044118;28;20186;-74
2021/01/30 04:46:00;;;;;;;7.43;2.75;;;4.90;99.90;;;;;;5048203;28;20577;-74
2021/01/30 04:48:35;;;;;;;4.70;1.70;;;4.90;99.90;;;;;;5055923;28;20344;-74
2021/01/30 04:51:01;;;;;;;5.28;2.17;;;4.80;99.90;;;;;;5059402;28;20037;-74
2021/01/30 04:53:55;;;;;;;5.55;2.10;;;4.80;99.90;;;;;;5060433;28;20502;-77
2021/01/30 04:56:58;;;;;;;4.63;1.52;;;4.80;99.90;;;;;;5052028;28;20049;-76
2021/01/30 04:59:36;;;;;;;6.60;1.85;;;4.80;99.90;;;;;;5060964;28;20155;-76
2021/01/30 05:02:31;;;;;;;7.00;1.48;;;4.80;99.90;;;;;;5055227;28;20060;-77
2021/01/30 05:05:03;;;;;;;8.93;2.50;;;4.80;99.90;;;;;;5036328;28;20536;-77
2021/01/30 05:07:55;;;;;;;8.65;1.83;;;4.70;99.90;;;;;;5048958;28;20052;-78
2021/01/30 05:10:55;;;;;;;9.18;1.73;;;4.80;99.90;;;;;;5055156;28;20079;-77
2021/01/30 05:13:37;;;;;;;9.65;2.13;;;4.70;99.90;;;;;;5058638;28;20056;-77
2021/01/30 05:16:20;;;;;;;8.20;2.10;;;4.70;99.90;;;;;;5061142;28;20045;-77
2021/01/30 05:18:49;;;;;;;;;;;4.70;99.90;;;;;;5059070;28;20379;-77
2021/01/30 05:21:24;;;;;;;11.27;2.00;;;4.70;99.90;;;;;;5055798;28;19917;-76
2021/01/30 05:23:52;;;;;;;8.77;2.67;;;4.70;99.90;;;;;;5065557;28;20057;-75
2021/01/30 05:26:40;;;;;;;11.38;2.50;;;4.70;99.90;;;;;;5065068;28;20049;-77
2021/01/30 05:29:32;;;;;;;8.10;2.03;;;4.70;99.90;;;;;;5051267;28;20501;-74
2021/01/30 05:32:09;;;;;;;14.90;2.70;;;4.70;99.90;;;;;;5046710;28;20072;-76
2021/01/30 05:35:16;;;;;;;6.07;1.90;;;4.60;99.90;;;;;;5048536;28;20480;-75
2021/01/30 05:37:52;;;;;;;8.88;2.60;;;4.60;99.90;;;;;;5026064;28;20204;-76
2021/01/30 05:41:10;;;;;;;11.25;2.20;;;4.60;99.90;;;;;;5025719;28;20049;-74
2021/01/30 05:43:49;;;;;;;11.88;2.50;;;4.60;99.90;;;;;;5026887;28;20053;-74
2021/01/30 05:46:29;;;;;;;6.28;2.00;;;4.70;99.90;;;;;;5026299;28;20140;-75
2021/01/30 05:49:07;;;;;;;13.38;2.55;;;4.70;99.90;;;;;;5047622;28;20468;-75
2021/01/30 05:51:39;;;;;;;8.65;2.55;;;4.70;99.90;;;;;;5047136;28;20077;-75
2021/01/30 05:54:08;;;;;;;12.35;2.95;;;4.70;99.90;;;;;;5047175;28;20159;-75
2021/01/30 05:56:39;;;;;;;10.73;2.85;;;4.70;99.90;;;;;;5046771;28;20061;-75
2021/01/30 05:59:15;;;;;;;14.75;2.78;;;4.80;99.90;;;;;;5050871;28;20417;-75
2021/01/30 06:01:42;;;;;;;13.90;2.53;;;4.80;99.90;;;;;;5040112;28;20095;-76
2021/01/30 06:04:11;;;;;;;14.38;3.47;;;4.80;99.90;;;;;;5045335;28;20488;-76
2021/01/30 06:06:52;;;;;;;9.40;2.88;;;4.80;99.90;;;;;;5047325;28;20057;-78
2021/01/30 06:09:41;;;;;;;15.82;3.08;;;4.80;99.90;;;;;;5045224;28;20041;-75
2021/01/30 06:12:36;;;;;;;21.30;3.20;;;4.70;99.90;;;;;;5038848;28;20610;-74
2021/01/30 06:15:19;;;;;;;13.00;2.90;;;4.70;99.90;;;;;;5044555;28;20057;-74
2021/01/30 06:17:49;;;;;;;11.88;3.58;;;4.70;99.90;;;;;;5045622;28;20041;-73
2021/01/30 06:20:29;;;;;;;15.43;2.75;;;4.70;99.90;;;;;;5040036;28;20059;-74
2021/01/30 06:23:06;;;;;;;18.05;2.85;;;4.70;99.90;;;;;;5039802;28;20111;-74
2021/01/30 06:25:36;;;;;;;13.98;2.85;;;4.70;99.90;;;;;;5045729;28;20174;-75
2021/01/30 06:28:25;;;;;;;15.30;3.30;;;4.80;99.90;;;;;;5044066;28;20045;-74
2021/01/30 06:30:52;;;;;;;16.77;3.65;;;4.70;99.90;;;;;;5039995;28;20147;-75
2021/01/30 06:33:35;;;;;;;18.60;3.47;;;4.70;99.90;;;;;;5035997;28;20049;-75
2021/01/30 06:36:33;;;;;;;13.70;3.03;;;4.80;99.90;;;;;;5039818;28;20045;-74
2021/01/30 06:39:13;;;;;;;12.15;3.30;;;4.70;99.90;;;;;;5039257;28;20106;-75
2021/01/30 06:41:50;;;;;;;13.80;3.38;;;4.70;99.90;;;;;;5039484;28;20152;-75
2021/01/30 06:44:27;;;;;;;18.00;3.88;;;4.70;99.90;;;;;;5040709;28;20053;-75
2021/01/30 06:47:15;;;;;;;15.32;3.50;;;4.80;99.90;;;;;;5046621;28;20045;-75
2021/01/30 06:49:50;;;;;;;16.67;3.42;;;4.80;99.90;;;;;;5042094;28;20690;-75
2021/01/30 06:52:23;;;;;;;14.38;3.33;;;4.90;99.90;;;;;;5037529;28;20071;-76
2021/01/30 06:55:04;;;;;;;;;;;4.80;99.90;;;;;;5043769;28;20052;-75
2021/01/30 06:57:49;;;;;;;12.40;3.30;;;4.80;99.90;;;;;;5039470;28;20523;-75
2021/01/30 07:00:17;;;;;;;15.13;3.53;;;4.80;99.90;;;;;;5040926;28;20491;-79
2021/01/30 07:02:49;;;;;;;16.35;3.47;;;4.80;99.90;;;;;;5056193;28;20114;-78
2021/01/30 07:05:25;;;;;;;13.48;3.17;;;4.90;99.90;;;;;;5036464;28;20060;-79
2021/01/30 07:08:21;;;;;;;15.23;3.55;;;4.90;99.90;;;;;;5036264;28;20204;-80
2021/01/30 07:10:48;;;;;;;20.75;3.47;;;4.90;99.90;;;;;;5029528;28;20214;-77
2021/01/30 07:13:37;;;;;;;23.20;4.03;;;4.90;99.90;;;;;;5044226;28;20045;-74
2021/01/30 07:16:10;;;;;;;23.15;4.05;;;4.80;99.90;;;;;;5046325;28;20045;-75
2021/01/30 07:18:59;;;;;;;17.17;3.08;;;4.80;99.90;;;;;;5045987;28;20076;-74
2021/01/30 07:21:29;;;;;;;18.70;3.60;;;4.90;99.90;;;;;;5045786;28;20148;-76
2021/01/30 07:24:24;;;;;;;18.42;4.05;;;4.90;99.90;;;;;;5044178;28;20053;-73
2021/01/30 07:26:59;;;;;;;24.95;4.28;;;4.90;99.90;;;;;;5045164;28;20141;-74
2021/01/30 07:29:50;;;;;;;18.33;4.35;;;4.90;99.90;;;;;;5043934;28;20048;-75
2021/01/30 07:32:30;;;;;;;15.32;3.40;;;4.90;99.90;;;;;;5044284;28;20156;-75
2021/01/30 07:35:10;;;;;;;20.02;3.80;;;4.90;99.90;;;;;;5045355;28;20037;-75
2021/01/30 07:37:48;;;;;;;32.30;4.53;;;4.90;99.90;;;;;;5025339;28;20121;-76
2021/01/30 07:40:26;;;;;;;16.27;4.10;;;4.90;99.90;;;;;;5039873;28;20077;-75
2021/01/30 07:43:27;;;;;;;17.92;4.65;;;4.90;99.90;;;;;;5028548;28;20125;-76
2021/01/30 07:46:34;;;;;;;16.80;3.88;;;4.90;99.90;;;;;;5033596;28;20046;-75
2021/01/30 07:49:11;;;;;;;11.60;3.95;;;4.90;99.90;;;;;;5057238;28;20060;-75
2021/01/30 07:51:59;;;;;;;16.25;3.65;;;4.90;99.90;;;;;;5043359;28;20052;-76
2021/01/30 07:54:26;;;;;;;24.83;4.30;;;4.90;99.90;;;;;;5042569;28;20120;-75
2021/01/30 07:57:21;;;;;;;20.83;4.80;;;5.00;99.90;;;;;;5042410;28;20115;-76
2021/01/30 07:59:57;;;;;;;20.73;3.55;;;5.10;99.90;;;;;;5034785;28;20044;-74
2021/01/30 08:02:48;;;;;;;24.67;4.38;;;5.10;99.90;;;;;;5037240;28;20075;-74
2021/01/30 08:05:45;;;;;;;21.17;4.90;;;5.10;99.90;;;;;;5041152;28;20539;-74
2021/01/30 08:08:25;;;;;;;23.88;3.85;;;5.20;99.90;;;;;;5044135;28;20052;-75
2021/01/30 08:11:18;;;;;;;24.15;3.72;;;5.20;99.90;;;;;;5034122;28;20591;-76
2021/01/30 08:13:47;;;;;;;21.83;4.03;;;5.20;99.90;;;;;;5041800;28;20055;-75
2021/01/30 08:16:42;;;;;;;15.35;3.67;;;5.30;99.90;;;;;;5043906;28;20056;-76
2021/01/30 08:19:16;;;;;;;23.48;3.95;;;5.30;99.90;;;;;;5043180;28;20627;-75
2021/01/30 08:21:54;;;;;;;24.20;3.97;;;5.30;99.90;;;;;;5056894;28;20080;-74
2021/01/30 08:24:28;;;;;;;19.50;3.67;;;5.30;99.90;;;;;;5041633;28;20127;-75
2021/01/30 08:27:06;;;;;;;16.48;4.13;;;5.30;99.90;;;;;;5033862;28;20054;-74
2021/01/30 08:29:37;;;;;;;15.88;3.47;;;5.30;99.90;;;;;;5030070;28;20155;-75
2021/01/30 08:32:25;;;;;;;17.13;3.97;;;5.30;99.90;;;;;;5034179;28;20469;-75
2021/01/30 08:34:54;;;;;;;19.52;3.35;;;5.30;99.90;;;;;;5027778;28;20092;-76
2021/01/30 08:37:20;;;;;;;17.20;3.67;;;5.30;99.90;;;;;;5026802;28;20477;-76
2021/01/30 08:40:18;;;;;;;18.27;4.85;;;5.30;99.90;;;;;;5043072;28;20049;-75
2021/01/30 08:42:59;;;;;;;18.38;5.07;;;5.30;99.90;;;;;;5042727;28;20384;-75
2021/01/30 08:45:31;;;;;;;20.17;4.10;;;5.30;99.90;;;;;;5044795;28;20065;-75
2021/01/30 08:48:17;;;;;;;20.42;4.03;;;5.30;99.90;;;;;;5044249;28;20049;-75
2021/01/30 08:50:46;;;;;;;22.60;6.78;;;5.30;99.90;;;;;;5042719;28;20714;-74
2021/01/30 08:53:29;;;;;;;24.30;4.30;;;5.40;99.90;;;;;;5042068;28;20098;-74
2021/01/30 08:55:58;;;;;;;;;;;5.40;99.90;;;;;;5044070;28;20774;-74
2021/01/30 08:58:37;;;;;;;20.33;4.68;;;5.50;99.90;;;;;;5043208;28;19998;-75
2021/01/30 09:01:09;;;;;;;23.80;4.93;;;5.40;99.90;;;;;;5043079;28;20049;-74
2021/01/30 09:03:38;;;;;;;20.65;4.75;;;5.50;99.90;;;;;;5042486;28;20488;-75
2021/01/30 09:06:07;;;;;;;20.50;5.25;;;5.50;99.90;;;;;;5036289;28;20416;-74
2021/01/30 09:08:40;;;;;;;22.45;5.22;;;5.50;99.90;;;;;;5042374;28;20056;-75
2021/01/30 09:11:38;;;;;;;25.00;5.32;;;5.60;99.90;;;;;;5042960;28;20080;-75
2021/01/30 09:14:07;;;;;;;22.27;4.57;;;5.60;99.90;;;;;;5040272;28;20127;-74
2021/01/30 09:16:57;;;;;;;19.27;4.38;;;5.60;99.90;;;;;;5044525;28;20411;-74
2021/01/30 09:19:52;;;;;;;21.95;5.05;;;5.60;99.90;;;;;;5044558;28;20530;-75
2021/01/30 09:22:35;;;;;;;18.17;5.45;;;5.60;99.90;;;;;;5042210;28;20881;-74
2021/01/30 09:25:39;;;;;;;23.92;4.35;;;5.70;99.90;;;;;;5041929;28;20111;-74
2021/01/30 09:28:17;;;;;;;21.27;4.28;;;5.80;99.90;;;;;;5034711;28;20502;-74
2021/01/30 09:30:55;;;;;;;23.30;4.72;;;5.80;99.90;;;;;;5044748;28;20702;-74
2021/01/30 09:33:38;;;;;;;20.27;4.45;;;5.90;99.90;;;;;;5042620;28;20071;-74
2021/01/30 09:36:24;;;;;;;16.45;4.65;;;5.90;99.90;;;;;;5029763;28;20134;-74
2021/01/30 09:38:59;;;;;;;22.05;4.97;;;6.00;99.90;;;;;;5043644;28;20099;-74
2021/01/30 09:41:35;;;;;;;17.70;4.03;;;6.10;99.90;;;;;;5043298;28;20464;-75
2021/01/30 09:44:08;;;;;;;17.40;4.60;;;6.10;99.90;;;;;;5043497;28;20163;-74
2021/01/30 09:46:39;;;;;;;19.58;4.20;;;6.10;99.90;;;;;;5042103;28;20110;-75
2021/01/30 09:49:13;;;;;;;21.23;5.03;;;6.10;99.90;;;;;;5044303;28;20500;-74
2021/01/30 09:51:41;;;;;;;25.27;4.22;;;6.10;99.90;;;;;;5045337;28;20147;-75
2021/01/30 09:54:16;;;;;;;24.05;4.72;;;6.10;99.90;;;;;;5047020;28;20041;-75
2021/01/30 09:56:46;;;;;;;16.35;4.40;;;6.10;99.90;;;;;;5045454;28;20118;-74
2021/01/30 09:59:25;;;;;;;25.90;5.30;;;6.00;99.90;;;;;;5046036;28;20073;-74
2021/01/30 10:01:52;;;;;;;17.70;4.28;;;6.00;99.90;;;;;;5039865;28;20110;-74
2021/01/30 10:04:27;;;;;;;23.17;4.97;;;6.00;99.90;;;;;;5046761;28;20066;-74
2021/01/30 10:07:17;;;;;;;22.33;4.28;;;5.90;99.90;;;;;;5045215;28;20298;-75
2021/01/30 10:09:47;;;;;;;22.60;4.82;;;5.80;99.90;;;;;;5045883;28;20206;-75
2021/01/30 10:12:16;;;;;;;21.40;4.60;;;5.70;99.90;;;;;;5046403;28;20099;-74
2021/01/30 10:14:47;;;;;;;24.10;4.72;;;5.70;99.90;;;;;;5046367;28;20048;-74
2021/01/30 10:17:20;;;;;;;24.40;4.95;;;5.70;99.90;;;;;;5045764;28;20052;-74
2021/01/30 10:19:55;;;;;;;15.70;4.50;;;5.70;99.90;;;;;;5047252;28;20566;-74
2021/01/30 10:22:34;;;;;;;31.77;6.40;;;5.70;99.90;;;;;;5046499;28;20041;-76
2021/01/30 10:25:03;;;;;;;27.58;4.78;;;5.80;99.90;;;;;;5044060;28;20072;-74
2021/01/30 10:27:30;;;;;;;24.35;5.28;;;5.80;99.90;;;;;;5040024;28;20045;-75
2021/01/30 10:29:58;;;;;;;26.38;4.90;;;5.80;99.90;;;;;;5046912;28;20053;-75
2021/01/30 10:32:50;;;;;;;15.05;4.60;;;5.90;99.90;;;;;;5046861;28;20120;-77
2021/01/30 10:35:51;;;;;;;24.42;5.28;;;6.00;99.90;;;;;;5041216;28;20226;-76
2021/01/30 10:38:26;;;;;;;23.58;5.28;;;6.00;99.90;;;;;;5025460;28;20099;-77
2021/01/30 10:41:00;;;;;;;27.88;5.70;;;6.00;99.90;;;;;;5039644;28;20053;-75
2021/01/30 10:43:33;;;;;;;30.33;5.15;;;6.00;99.90;;;;;;5035461;28;20111;-76
2021/01/30 10:46:05;;;;;;;31.20;6.43;;;6.00;99.90;;;;;;5045237;28;20612;-75
2021/01/30 10:48:34;;;;;;;20.55;4.70;;;6.00;99.90;;;;;;5040256;28;20056;-75
2021/01/30 10:51:23;;;;;;;29.33;6.13;;;6.00;99.90;;;;;;5045203;28;20049;-76
2021/01/30 10:54:29;;;;;;;25.85;6.80;;;5.90;99.90;;;;;;5032994;28;20045;-75
2021/01/30 10:57:05;;;;;;;23.30;5.30;;;6.00;99.90;;;;;;5026973;28;20806;-76
2021/01/30 11:00:02;;;;;;;26.25;6.90;;;6.00;99.90;;;;;;5030496;28;20248;-75
2021/01/30 11:02:31;;;;;;;19.20;4.70;;;6.00;99.90;;;;;;5035575;28;20045;-76
2021/01/30 11:05:09;;;;;;;24.75;5.65;;;6.10;99.90;;;;;;5034936;28;20071;-75
2021/01/30 11:08:01;;;;;;;24.98;5.70;;;6.20;99.90;;;;;;5036713;28;20041;-76
2021/01/30 11:10:42;;;;;;;24.80;4.53;;;6.20;99.90;;;;;;5038314;28;20075;-76
2021/01/30 11:13:20;;;;;;;16.45;4.00;;;6.10;99.90;;;;;;5043135;28;20068;-75
2021/01/30 11:15:50;;;;;;;19.65;4.85;;;6.10;99.90;;;;;;5045855;28;20698;-75
2021/01/30 11:18:28;;;;;;;20.17;3.90;;;6.10;99.90;;;;;;5033101;28;20045;-76
2021/01/30 11:20:56;;;;;;;21.05;4.68;;;6.20;99.90;;;;;;5040385;28;20049;-76
2021/01/30 11:23:45;;;;;;;11.77;3.33;;;6.20;99.90;;;;;;5037109;28;20056;-76
2021/01/30 11:26:12;;;;;;;18.25;4.13;;;6.20;99.90;;;;;;5037460;28;20423;-76
2021/01/30 11:28:40;;;;;;;21.48;3.70;;;6.30;99.90;;;;;;5029146;28;20184;-75
2021/01/30 11:31:09;;;;;;;18.50;3.50;;;6.30;99.90;;;;;;5029449;28;20396;-75
2021/01/30 11:33:37;;;;;;;18.15;3.38;;;6.30;99.90;;;;;;5037690;28;20048;-76
2021/01/30 11:36:06;;;;;;;13.02;3.05;;;6.30;99.90;;;;;;5054525;28;20555;-75
2021/01/30 11:38:32;;;;;;;17.00;3.22;;;6.30;99.90;;;;;;5038431;28;20076;-74
2021/01/30 11:40:59;;;;;;;14.85;2.90;;;6.20;99.90;;;;;;5040773;28;20080;-76
2021/01/30 11:43:29;;;;;;;14.90;3.40;;;6.20;99.90;;;;;;5029702;28;20118;-77
2021/01/30 11:45:59;;;;;;;16.33;3.72;;;6.20;99.90;;;;;;5025775;28;20049;-77
2021/01/30 11:48:28;;;;;;;14.10;3.50;;;6.20;99.90;;;;;;5031506;28;20124;-77
2021/01/30 11:50:55;;;;;;;8.75;2.70;;;6.20;99.90;;;;;;5029251;28;20190;-75
2021/01/30 11:53:28;;;;;;;9.57;2.55;;;6.20;99.90;;;;;;5032099;28;20124;-76
2021/01/30 11:55:55;;;;;;;13.30;2.70;;;6.30;99.90;;;;;;5029329;28;20140;-74
2021/01/30 11:58:22;;;;;;;23.85;3.40;;;6.30;99.90;;;;;;5032262;28;20098;-76
2021/01/30 12:00:53;;;;;;;10.73;2.67;;;6.30;99.90;;;;;;5035649;28;20144;-74
2021/01/30 12:03:28;;;;;;;7.63;2.20;;;6.20;99.90;;;;;;5036782;28;20108;-76
2021/01/30 12:05:59;;;;;;;10.02;2.50;;;6.10;99.90;;;;;;5033436;28;20511;-75
2021/01/30 12:08:26;;;;;;;7.55;2.47;;;6.10;99.90;;;;;;5033792;28;20117;-76
2021/01/30 12:10:54;;;;;;;12.07;2.55;;;6.00;99.90;;;;;;5033870;28;20518;-76
2021/01/30 12:13:22;;;;;;;12.23;2.42;;;6.00;99.90;;;;;;5035534;28;20432;-76
2021/01/30 12:15:49;;;;;;;9.00;1.98;;;6.00;99.90;;;;;;5040479;28;20072;-76
2021/01/30 12:18:17;;;;;;;5.90;1.92;;;5.90;99.90;;;;;;5038910;28;20590;-76
2021/01/30 12:20:49;;;;;;;14.23;2.30;;;5.90;99.90;;;;;;5042385;28;20049;-76
2021/01/30 12:23:16;;;;;;;11.52;2.47;;;5.90;99.90;;;;;;5040731;28;20045;-75
2021/01/30 12:25:46;;;;;;;9.13;2.45;;;5.80;99.90;;;;;;5036950;28;20046;-77
2021/01/30 12:28:23;;;;;;;10.05;2.72;;;5.80;99.90;;;;;;5022228;28;20473;-76
2021/01/30 12:30:52;;;;;;;13.75;3.13;;;5.80;99.90;;;;;;5031326;28;20110;-77
2021/01/30 12:33:19;;;;;;;8.30;2.28;;;5.80;99.90;;;;;;5044717;28;20106;-78
2021/01/30 12:35:47;;;;;;;11.30;2.70;;;5.80;99.90;;;;;;5026460;28;20041;-76
2021/01/30 12:38:13;;;;;;;8.88;2.53;;;5.90;99.90;;;;;;5022048;28;20053;-75
2021/01/30 12:40:45;;;;;;;13.45;3.40;;;5.90;99.90;;;;;;5023505;28;20164;-75
2021/01/30 12:43:16;;;;;;;16.17;3.83;;;5.80;99.90;;;;;;5033495;28;20057;-76
2021/01/30 12:45:43;;;;;;;20.30;3.92;;;5.70;99.90;;;;;;5044249;28;20045;-76
2021/01/30 12:48:11;;;;;;;22.05;4.70;;;5.70;99.90;;;;;;5043472;28;20073;-77
2021/01/30 12:50:38;;;;;;;16.75;3.97;;;5.70;99.90;;;;;;5024066;28;20120;-77
2021/01/30 12:53:08;;;;;;;16.65;4.78;;;5.70;99.90;;;;;;5037099;28;20041;-76
2021/01/30 12:55:35;;;;;;;14.13;4.10;;;5.60;99.90;;;;;;5041318;28;20041;-76
2021/01/30 12:58:16;;;;;;;19.25;4.30;;;5.60;99.90;;;;;;5039033;28;20419;-76
2021/01/30 13:00:45;;;;;;;16.08;3.65;;;5.60;99.90;;;;;;5042623;28;20075;-75
2021/01/30 13:03:14;;;;;;;15.48;3.55;;;5.60;99.90;;;;;;5040329;28;20048;-75
2021/01/30 13:05:42;;;;;;;16.60;2.92;;;5.60;99.90;;;;;;5039411;28;20133;-76
2021/01/30 13:08:09;;;;;;;11.68;3.22;;;5.50;99.90;;;;;;5034404;28;20076;-76
2021/01/30 13:10:38;;;;;;;14.30;2.80;;;5.50;99.90;;;;;;5033930;28;20069;-75
2021/01/30 13:13:05;;;;;;;11.18;3.22;;;5.50;99.90;;;;;;5032784;28;20056;-75
2021/01/30 13:15:32;;;;;;;10.80;2.88;;;5.50;99.90;;;;;;5033650;28;20048;-75
2021/01/30 13:18:00;;;;;;;12.60;3.08;;;5.40;99.90;;;;;;5039136;28;20041;-76
2021/01/30 13:20:27;;;;;;;12.07;2.80;;;5.40;99.90;;;;;;5034299;28;20114;-75
2021/01/30 13:22:58;;;;;;;9.23;2.33;;;5.40;99.90;;;;;;5045208;28;20049;-75
2021/01/30 13:25:25;;;;;;;17.10;3.58;;;5.50;99.90;;;;;;5034553;28;20452;-76
2021/01/30 13:27:52;;;;;;;8.48;1.92;;;5.40;99.90;;;;;;5035117;28;20053;-75
2021/01/30 13:30:22;;;;;;;7.63;2.13;;;5.40;99.90;;;;;;5040151;28;20103;-75
2021/01/30 13:32:55;;;;;;;9.95;2.20;;;5.40;99.90;;;;;;5041024;28;20045;-75
2021/01/30 13:35:27;;;;;;;10.20;2.95;;;5.30;99.90;;;;;;5041897;28;20056;-76